sensor_id;sensor_type;location;lat;lon;timestamp;temperature;humidity
24618;DHT22;12762;51.730;5.356;2024-01-30T00:01:57;9.50;83.80
24618;DHT22;12762;51.730;5.356;2024-01-30T00:04:24;9.50;83.90
24618;DHT22;12762;51.730;5.356;2024-01-30T00:06:51;9.40;83.90
24618;DHT22;12762;51.730;5.356;2024-01-30T00:09:20;9.40;83.90
24618;DHT22;12762;51.730;5.356;2024-01-30T00:11:46;9.40;83.90
24618;DHT22;12762;51.730;5.356;2024-01-30T00:14:13;9.40;83.90
24618;DHT22;12762;51.730;5.356;2024-01-30T00:16:40;9.30;83.90
24618;DHT22;12762;51.730;5.356;2024-01-30T00:19:07;9.30;84.00
24618;DHT22;12762;51.730;5.356;2024-01-30T00:21:35;9.30;84.00
24618;DHT22;12762;51.730;5.356;2024-01-30T00:24:02;9.20;84.00
24618;DHT22;12762;51.730;5.356;2024-01-30T00:26:29;9.20;84.10
24618;DHT22;12762;51.730;5.356;2024-01-30T00:28:55;9.20;84.10
24618;DHT22;12762;51.730;5.356;2024-01-30T00:31:22;9.20;84.10
24618;DHT22;12762;51.730;5.356;2024-01-30T00:33:49;9.20;84.20
24618;DHT22;12762;51.730;5.356;2024-01-30T00:36:16;9.20;84.20
24618;DHT22;12762;51.730;5.356;2024-01-30T00:38:43;9.20;84.20
24618;DHT22;12762;51.730;5.356;2024-01-30T00:41:10;9.20;85.10
24618;DHT22;12762;51.730;5.356;2024-01-30T00:43:37;9.20;84.30
24618;DHT22;12762;51.730;5.356;2024-01-30T00:46:04;9.20;84.30
24618;DHT22;12762;51.730;5.356;2024-01-30T00:48:31;9.20;84.30
24618;DHT22;12762;51.730;5.356;2024-01-30T00:50:58;9.20;84.30
24618;DHT22;12762;51.730;5.356;2024-01-30T00:53:25;9.20;84.30
24618;DHT22;12762;51.730;5.356;2024-01-30T00:55:51;9.10;84.20
24618;DHT22;12762;51.730;5.356;2024-01-30T00:58:18;9.10;84.20
24618;DHT22;12762;51.730;5.356;2024-01-30T01:00:46;9.10;84.30
24618;DHT22;12762;51.730;5.356;2024-01-30T01:03:13;9.10;84.30
24618;DHT22;12762;51.730;5.356;2024-01-30T01:05:40;9.10;84.30
24618;DHT22;12762;51.730;5.356;2024-01-30T01:08:10;9.10;84.90
24618;DHT22;12762;51.730;5.356;2024-01-30T01:10:37;9.10;84.40
24618;DHT22;12762;51.730;5.356;2024-01-30T01:13:03;9.10;84.30
24618;DHT22;12762;51.730;5.356;2024-01-30T01:15:33;9.10;84.40
24618;DHT22;12762;51.730;5.356;2024-01-30T01:18:00;9.10;84.40
24618;DHT22;12762;51.730;5.356;2024-01-30T01:20:31;9.10;84.40
24618;DHT22;12762;51.730;5.356;2024-01-30T01:22:58;9.10;84.40
24618;DHT22;12762;51.730;5.356;2024-01-30T01:25:25;9.10;84.50
24618;DHT22;12762;51.730;5.356;2024-01-30T01:27:52;9.10;84.50
24618;DHT22;12762;51.730;5.356;2024-01-30T01:30:19;9.10;84.40
24618;DHT22;12762;51.730;5.356;2024-01-30T01:32:48;9.10;84.40
24618;DHT22;12762;51.730;5.356;2024-01-30T01:35:23;9.10;84.50
24618;DHT22;12762;51.730;5.356;2024-01-30T01:37:54;9.00;84.40
24618;DHT22;12762;51.730;5.356;2024-01-30T01:40:25;9.00;84.40
24618;DHT22;12762;51.730;5.356;2024-01-30T01:42:54;9.00;84.40
24618;DHT22;12762;51.730;5.356;2024-01-30T01:45:22;9.00;84.40
24618;DHT22;12762;51.730;5.356;2024-01-30T01:47:51;9.00;84.40
24618;DHT22;12762;51.730;5.356;2024-01-30T01:50:20;9.00;84.50
24618;DHT22;12762;51.730;5.356;2024-01-30T01:52:49;9.00;84.50
24618;DHT22;12762;51.730;5.356;2024-01-30T01:55:17;8.90;84.80
24618;DHT22;12762;51.730;5.356;2024-01-30T01:57:49;8.90;84.50
24618;DHT22;12762;51.730;5.356;2024-01-30T02:00:16;8.90;84.50
24618;DHT22;12762;51.730;5.356;2024-01-30T02:02:43;8.90;84.50
24618;DHT22;12762;51.730;5.356;2024-01-30T02:05:12;8.90;84.60
24618;DHT22;12762;51.730;5.356;2024-01-30T02:07:39;8.90;84.50
24618;DHT22;12762;51.730;5.356;2024-01-30T02:10:08;8.90;84.60
24618;DHT22;12762;51.730;5.356;2024-01-30T02:12:35;9.00;84.70
24618;DHT22;12762;51.730;5.356;2024-01-30T02:15:02;9.00;84.60
24618;DHT22;12762;51.730;5.356;2024-01-30T02:17:29;9.00;84.70
24618;DHT22;12762;51.730;5.356;2024-01-30T02:19:56;9.00;84.60
24618;DHT22;12762;51.730;5.356;2024-01-30T02:22:23;8.90;84.50
24618;DHT22;12762;51.730;5.356;2024-01-30T02:24:50;9.00;84.60
24618;DHT22;12762;51.730;5.356;2024-01-30T02:27:17;9.00;84.60
24618;DHT22;12762;51.730;5.356;2024-01-30T02:29:44;9.00;84.60
24618;DHT22;12762;51.730;5.356;2024-01-30T02:32:11;8.90;84.50
24618;DHT22;12762;51.730;5.356;2024-01-30T02:34:38;8.90;84.50
24618;DHT22;12762;51.730;5.356;2024-01-30T02:37:05;8.90;84.60
24618;DHT22;12762;51.730;5.356;2024-01-30T02:39:34;8.90;84.60
24618;DHT22;12762;51.730;5.356;2024-01-30T02:42:01;8.90;84.60
24618;DHT22;12762;51.730;5.356;2024-01-30T02:44:28;8.90;84.60
24618;DHT22;12762;51.730;5.356;2024-01-30T02:46:55;8.90;84.60
24618;DHT22;12762;51.730;5.356;2024-01-30T02:49:22;8.90;84.70
24618;DHT22;12762;51.730;5.356;2024-01-30T02:51:49;8.90;84.70
24618;DHT22;12762;51.730;5.356;2024-01-30T02:54:16;8.90;84.70
24618;DHT22;12762;51.730;5.356;2024-01-30T02:56:43;8.90;84.70
24618;DHT22;12762;51.730;5.356;2024-01-30T02:59:10;8.90;84.70
24618;DHT22;12762;51.730;5.356;2024-01-30T03:01:43;8.90;84.70
24618;DHT22;12762;51.730;5.356;2024-01-30T03:04:11;8.90;84.80
24618;DHT22;12762;51.730;5.356;2024-01-30T03:06:38;8.90;84.70
24618;DHT22;12762;51.730;5.356;2024-01-30T03:09:05;8.90;84.70
24618;DHT22;12762;51.730;5.356;2024-01-30T03:11:32;8.90;84.70
24618;DHT22;12762;51.730;5.356;2024-01-30T03:13:58;8.90;84.70
24618;DHT22;12762;51.730;5.356;2024-01-30T03:16:26;8.90;84.70
24618;DHT22;12762;51.730;5.356;2024-01-30T03:18:53;8.90;84.80
24618;DHT22;12762;51.730;5.356;2024-01-30T03:21:19;8.90;84.70
24618;DHT22;12762;51.730;5.356;2024-01-30T03:23:46;8.90;84.70
24618;DHT22;12762;51.730;5.356;2024-01-30T03:26:13;8.90;85.50
24618;DHT22;12762;51.730;5.356;2024-01-30T03:28:42;8.90;84.80
24618;DHT22;12762;51.730;5.356;2024-01-30T03:31:08;8.90;84.70
24618;DHT22;12762;51.730;5.356;2024-01-30T03:33:36;8.90;84.70
24618;DHT22;12762;51.730;5.356;2024-01-30T03:36:04;8.90;84.70
24618;DHT22;12762;51.730;5.356;2024-01-30T03:38:31;8.90;84.80
24618;DHT22;12762;51.730;5.356;2024-01-30T03:40:59;8.90;84.80
24618;DHT22;12762;51.730;5.356;2024-01-30T03:43:26;8.90;84.80
24618;DHT22;12762;51.730;5.356;2024-01-30T03:45:56;8.90;84.80
24618;DHT22;12762;51.730;5.356;2024-01-30T03:48:23;8.90;84.80
24618;DHT22;12762;51.730;5.356;2024-01-30T03:50:53;8.90;84.80
24618;DHT22;12762;51.730;5.356;2024-01-30T03:53:20;8.90;84.80
24618;DHT22;12762;51.730;5.356;2024-01-30T03:55:47;8.90;84.80
24618;DHT22;12762;51.730;5.356;2024-01-30T03:58:13;9.00;84.90
24618;DHT22;12762;51.730;5.356;2024-01-30T04:00:40;8.90;84.80
24618;DHT22;12762;51.730;5.356;2024-01-30T04:03:10;9.00;84.90
24618;DHT22;12762;51.730;5.356;2024-01-30T04:05:38;9.00;84.90
24618;DHT22;12762;51.730;5.356;2024-01-30T04:08:05;9.00;84.90
24618;DHT22;12762;51.730;5.356;2024-01-30T04:10:31;9.00;84.90
24618;DHT22;12762;51.730;5.356;2024-01-30T04:12:59;9.00;84.90
24618;DHT22;12762;51.730;5.356;2024-01-30T04:15:26;9.00;85.00
24618;DHT22;12762;51.730;5.356;2024-01-30T04:17:53;9.10;85.00
24618;DHT22;12762;51.730;5.356;2024-01-30T04:20:20;9.10;85.00
24618;DHT22;12762;51.730;5.356;2024-01-30T04:22:47;9.10;85.00
24618;DHT22;12762;51.730;5.356;2024-01-30T04:25:14;9.10;85.00
24618;DHT22;12762;51.730;5.356;2024-01-30T04:27:41;9.10;85.00
24618;DHT22;12762;51.730;5.356;2024-01-30T04:30:08;9.20;85.10
24618;DHT22;12762;51.730;5.356;2024-01-30T04:32:36;9.20;85.10
24618;DHT22;12762;51.730;5.356;2024-01-30T04:35:03;9.20;85.10
24618;DHT22;12762;51.730;5.356;2024-01-30T04:37:36;9.20;85.10
24618;DHT22;12762;51.730;5.356;2024-01-30T04:40:06;9.20;85.90
24618;DHT22;12762;51.730;5.356;2024-01-30T04:42:36;9.30;85.10
24618;DHT22;12762;51.730;5.356;2024-01-30T04:45:06;9.30;85.10
24618;DHT22;12762;51.730;5.356;2024-01-30T04:47:33;9.30;85.00
24618;DHT22;12762;51.730;5.356;2024-01-30T04:50:01;9.30;85.00
24618;DHT22;12762;51.730;5.356;2024-01-30T04:52:28;9.30;85.00
24618;DHT22;12762;51.730;5.356;2024-01-30T04:54:55;9.30;85.00
24618;DHT22;12762;51.730;5.356;2024-01-30T04:57:22;9.30;85.00
24618;DHT22;12762;51.730;5.356;2024-01-30T04:59:49;9.30;85.00
24618;DHT22;12762;51.730;5.356;2024-01-30T05:02:16;9.30;85.10
24618;DHT22;12762;51.730;5.356;2024-01-30T05:04:43;9.30;85.10
24618;DHT22;12762;51.730;5.356;2024-01-30T05:07:10;9.30;85.10
24618;DHT22;12762;51.730;5.356;2024-01-30T05:09:37;9.30;85.20
24618;DHT22;12762;51.730;5.356;2024-01-30T05:12:04;9.30;85.10
24618;DHT22;12762;51.730;5.356;2024-01-30T05:14:31;9.30;85.20
24618;DHT22;12762;51.730;5.356;2024-01-30T05:16:58;9.40;85.30
24618;DHT22;12762;51.730;5.356;2024-01-30T05:19:25;9.40;85.30
24618;DHT22;12762;51.730;5.356;2024-01-30T05:21:52;9.40;85.30
24618;DHT22;12762;51.730;5.356;2024-01-30T05:24:20;9.40;85.30
24618;DHT22;12762;51.730;5.356;2024-01-30T05:26:48;9.40;85.40
24618;DHT22;12762;51.730;5.356;2024-01-30T05:29:15;9.40;85.40
24618;DHT22;12762;51.730;5.356;2024-01-30T05:31:42;9.40;85.40
24618;DHT22;12762;51.730;5.356;2024-01-30T05:34:09;9.50;86.30
24618;DHT22;12762;51.730;5.356;2024-01-30T05:36:36;9.40;85.30
24618;DHT22;12762;51.730;5.356;2024-01-30T05:39:05;9.50;85.50
24618;DHT22;12762;51.730;5.356;2024-01-30T05:41:34;9.50;85.60
24618;DHT22;12762;51.730;5.356;2024-01-30T05:44:01;9.50;85.40
24618;DHT22;12762;51.730;5.356;2024-01-30T05:46:28;9.60;85.60
24618;DHT22;12762;51.730;5.356;2024-01-30T05:48:58;9.50;85.40
24618;DHT22;12762;51.730;5.356;2024-01-30T05:51:25;9.60;85.60
24618;DHT22;12762;51.730;5.356;2024-01-30T05:53:52;9.60;85.60
24618;DHT22;12762;51.730;5.356;2024-01-30T05:56:19;9.60;85.60
24618;DHT22;12762;51.730;5.356;2024-01-30T05:58:46;9.60;85.60
24618;DHT22;12762;51.730;5.356;2024-01-30T06:01:13;9.60;85.60
24618;DHT22;12762;51.730;5.356;2024-01-30T06:03:40;9.70;85.70
24618;DHT22;12762;51.730;5.356;2024-01-30T06:06:07;9.70;85.70
24618;DHT22;12762;51.730;5.356;2024-01-30T06:08:34;9.70;85.70
24618;DHT22;12762;51.730;5.356;2024-01-30T06:11:01;9.70;85.60
24618;DHT22;12762;51.730;5.356;2024-01-30T06:13:28;9.70;85.60
24618;DHT22;12762;51.730;5.356;2024-01-30T06:15:57;9.70;85.60
24618;DHT22;12762;51.730;5.356;2024-01-30T06:18:24;9.70;85.70
24618;DHT22;12762;51.730;5.356;2024-01-30T06:20:51;9.70;85.70
24618;DHT22;12762;51.730;5.356;2024-01-30T06:23:18;9.70;85.70
24618;DHT22;12762;51.730;5.356;2024-01-30T06:25:44;9.80;85.70
24618;DHT22;12762;51.730;5.356;2024-01-30T06:28:11;9.80;85.80
24618;DHT22;12762;51.730;5.356;2024-01-30T06:30:38;9.80;85.80
24618;DHT22;12762;51.730;5.356;2024-01-30T06:33:05;9.80;85.80
24618;DHT22;12762;51.730;5.356;2024-01-30T06:35:32;9.80;85.80
24618;DHT22;12762;51.730;5.356;2024-01-30T06:37:59;9.80;85.80
24618;DHT22;12762;51.730;5.356;2024-01-30T06:40:26;9.80;85.80
24618;DHT22;12762;51.730;5.356;2024-01-30T06:42:53;9.80;85.80
24618;DHT22;12762;51.730;5.356;2024-01-30T06:45:20;9.80;85.80
24618;DHT22;12762;51.730;5.356;2024-01-30T06:47:46;9.80;85.90
24618;DHT22;12762;51.730;5.356;2024-01-30T06:50:13;9.80;85.90
24618;DHT22;12762;51.730;5.356;2024-01-30T06:52:40;9.90;86.10
24618;DHT22;12762;51.730;5.356;2024-01-30T06:55:07;9.90;86.00
24618;DHT22;12762;51.730;5.356;2024-01-30T06:57:35;9.90;86.10
24618;DHT22;12762;51.730;5.356;2024-01-30T07:00:03;9.90;86.10
24618;DHT22;12762;51.730;5.356;2024-01-30T07:02:30;9.90;86.10
24618;DHT22;12762;51.730;5.356;2024-01-30T07:04:57;9.90;86.10
24618;DHT22;12762;51.730;5.356;2024-01-30T07:07:24;10.00;85.10
24618;DHT22;12762;51.730;5.356;2024-01-30T07:09:52;10.00;85.10
24618;DHT22;12762;51.730;5.356;2024-01-30T07:12:24;10.00;85.10
24618;DHT22;12762;51.730;5.356;2024-01-30T07:14:52;10.00;85.00
24618;DHT22;12762;51.730;5.356;2024-01-30T07:17:19;10.00;85.10
24618;DHT22;12762;51.730;5.356;2024-01-30T07:19:46;10.00;85.10
24618;DHT22;12762;51.730;5.356;2024-01-30T07:22:13;10.00;85.10
24618;DHT22;12762;51.730;5.356;2024-01-30T07:24:43;10.00;85.10
24618;DHT22;12762;51.730;5.356;2024-01-30T07:27:15;10.00;85.10
24618;DHT22;12762;51.730;5.356;2024-01-30T07:29:44;10.00;85.10
24618;DHT22;12762;51.730;5.356;2024-01-30T07:32:11;10.10;85.20
24618;DHT22;12762;51.730;5.356;2024-01-30T07:34:38;10.10;85.20
24618;DHT22;12762;51.730;5.356;2024-01-30T07:37:19;10.10;85.20
24618;DHT22;12762;51.730;5.356;2024-01-30T07:39:47;10.10;85.20
24618;DHT22;12762;51.730;5.356;2024-01-30T07:42:13;10.20;85.30
24618;DHT22;12762;51.730;5.356;2024-01-30T07:44:40;10.20;85.30
24618;DHT22;12762;51.730;5.356;2024-01-30T07:47:07;10.30;85.40
24618;DHT22;12762;51.730;5.356;2024-01-30T07:49:40;10.30;85.40
24618;DHT22;12762;51.730;5.356;2024-01-30T07:52:07;10.30;85.40
24618;DHT22;12762;51.730;5.356;2024-01-30T07:54:34;10.40;85.50
24618;DHT22;12762;51.730;5.356;2024-01-30T07:57:04;10.40;85.40
24618;DHT22;12762;51.730;5.356;2024-01-30T07:59:30;10.40;85.30
24618;DHT22;12762;51.730;5.356;2024-01-30T08:02:04;10.40;85.30
24618;DHT22;12762;51.730;5.356;2024-01-30T08:04:31;10.50;85.50
24618;DHT22;12762;51.730;5.356;2024-01-30T08:06:58;10.50;85.40
24618;DHT22;12762;51.730;5.356;2024-01-30T08:09:25;10.50;85.40
24618;DHT22;12762;51.730;5.356;2024-01-30T08:11:51;10.60;85.40
24618;DHT22;12762;51.730;5.356;2024-01-30T08:14:18;10.60;85.40
24618;DHT22;12762;51.730;5.356;2024-01-30T08:16:45;10.60;85.40
24618;DHT22;12762;51.730;5.356;2024-01-30T08:19:12;10.70;85.50
24618;DHT22;12762;51.730;5.356;2024-01-30T08:21:39;10.70;85.50
24618;DHT22;12762;51.730;5.356;2024-01-30T08:24:06;10.70;85.40
24618;DHT22;12762;51.730;5.356;2024-01-30T08:26:33;10.80;85.50
24618;DHT22;12762;51.730;5.356;2024-01-30T08:29:01;10.80;85.50
24618;DHT22;12762;51.730;5.356;2024-01-30T08:31:28;10.80;85.50
24618;DHT22;12762;51.730;5.356;2024-01-30T08:33:55;10.90;85.60
24618;DHT22;12762;51.730;5.356;2024-01-30T08:36:22;10.90;85.50
24618;DHT22;12762;51.730;5.356;2024-01-30T08:38:50;10.90;85.50
24618;DHT22;12762;51.730;5.356;2024-01-30T08:41:21;11.00;85.60
24618;DHT22;12762;51.730;5.356;2024-01-30T08:43:48;11.00;85.50
24618;DHT22;12762;51.730;5.356;2024-01-30T08:46:18;11.10;85.60
24618;DHT22;12762;51.730;5.356;2024-01-30T08:48:46;11.10;85.60
24618;DHT22;12762;51.730;5.356;2024-01-30T08:51:14;11.10;85.50
24618;DHT22;12762;51.730;5.356;2024-01-30T08:53:45;11.10;85.50
24618;DHT22;12762;51.730;5.356;2024-01-30T08:56:12;11.20;85.50
24618;DHT22;12762;51.730;5.356;2024-01-30T08:58:39;11.20;85.50
24618;DHT22;12762;51.730;5.356;2024-01-30T09:01:05;11.30;85.50
24618;DHT22;12762;51.730;5.356;2024-01-30T09:03:32;11.30;85.50
24618;DHT22;12762;51.730;5.356;2024-01-30T09:05:59;11.30;86.30
24618;DHT22;12762;51.730;5.356;2024-01-30T09:08:26;11.40;85.60
24618;DHT22;12762;51.730;5.356;2024-01-30T09:10:53;11.40;85.50
24618;DHT22;12762;51.730;5.356;2024-01-30T09:13:21;11.50;85.60
24618;DHT22;12762;51.730;5.356;2024-01-30T09:15:48;11.50;85.50
24618;DHT22;12762;51.730;5.356;2024-01-30T09:18:15;11.60;85.60
24618;DHT22;12762;51.730;5.356;2024-01-30T09:20:42;11.60;85.50
24618;DHT22;12762;51.730;5.356;2024-01-30T09:23:09;11.70;85.60
24618;DHT22;12762;51.730;5.356;2024-01-30T09:25:38;11.70;85.50
24618;DHT22;12762;51.730;5.356;2024-01-30T09:28:08;11.80;85.50
24618;DHT22;12762;51.730;5.356;2024-01-30T09:30:35;11.80;85.40
24618;DHT22;12762;51.730;5.356;2024-01-30T09:33:02;11.90;85.50
24618;DHT22;12762;51.730;5.356;2024-01-30T09:35:29;11.90;85.50
24618;DHT22;12762;51.730;5.356;2024-01-30T09:37:56;11.90;85.40
24618;DHT22;12762;51.730;5.356;2024-01-30T09:40:24;12.00;85.50
24618;DHT22;12762;51.730;5.356;2024-01-30T09:42:52;12.10;85.50
24618;DHT22;12762;51.730;5.356;2024-01-30T09:45:19;12.10;85.40
24618;DHT22;12762;51.730;5.356;2024-01-30T09:47:49;12.10;85.30
24618;DHT22;12762;51.730;5.356;2024-01-30T09:50:19;12.20;85.30
24618;DHT22;12762;51.730;5.356;2024-01-30T09:52:55;12.20;85.30
24618;DHT22;12762;51.730;5.356;2024-01-30T09:55:37;12.20;85.20
24618;DHT22;12762;51.730;5.356;2024-01-30T09:58:09;12.20;85.20
24618;DHT22;12762;51.730;5.356;2024-01-30T10:00:36;12.20;85.10
24618;DHT22;12762;51.730;5.356;2024-01-30T10:03:04;12.20;85.10
24618;DHT22;12762;51.730;5.356;2024-01-30T10:05:33;12.20;85.20
24618;DHT22;12762;51.730;5.356;2024-01-30T10:08:01;12.20;85.20
24618;DHT22;12762;51.730;5.356;2024-01-30T10:10:38;12.20;85.20
24618;DHT22;12762;51.730;5.356;2024-01-30T10:13:35;12.20;85.10
24618;DHT22;12762;51.730;5.356;2024-01-30T10:16:02;12.20;85.20
24618;DHT22;12762;51.730;5.356;2024-01-30T10:18:29;12.20;85.30
24618;DHT22;12762;51.730;5.356;2024-01-30T10:20:58;12.20;85.20
24618;DHT22;12762;51.730;5.356;2024-01-30T10:23:26;12.20;85.20
24618;DHT22;12762;51.730;5.356;2024-01-30T10:25:58;12.30;85.30
24618;DHT22;12762;51.730;5.356;2024-01-30T10:28:43;12.30;85.10
24618;DHT22;12762;51.730;5.356;2024-01-30T10:31:19;12.40;85.10
24618;DHT22;12762;51.730;5.356;2024-01-30T10:33:52;12.40;85.30
24618;DHT22;12762;51.730;5.356;2024-01-30T10:36:40;12.40;85.00
24618;DHT22;12762;51.730;5.356;2024-01-30T10:39:08;12.40;85.20
24618;DHT22;12762;51.730;5.356;2024-01-30T10:41:43;12.50;85.20
24618;DHT22;12762;51.730;5.356;2024-01-30T10:44:12;12.50;85.20
24618;DHT22;12762;51.730;5.356;2024-01-30T10:46:46;12.60;85.20
24618;DHT22;12762;51.730;5.356;2024-01-30T10:49:15;12.70;85.10
24618;DHT22;12762;51.730;5.356;2024-01-30T10:51:42;12.70;84.90
24618;DHT22;12762;51.730;5.356;2024-01-30T10:54:10;12.70;84.90
24618;DHT22;12762;51.730;5.356;2024-01-30T10:56:41;12.80;84.80
24618;DHT22;12762;51.730;5.356;2024-01-30T10:59:09;12.80;84.70
24618;DHT22;12762;51.730;5.356;2024-01-30T11:01:37;12.80;84.60
24618;DHT22;12762;51.730;5.356;2024-01-30T11:04:05;12.80;84.50
24618;DHT22;12762;51.730;5.356;2024-01-30T11:06:32;12.80;84.40
24618;DHT22;12762;51.730;5.356;2024-01-30T11:09:11;12.80;84.30
24618;DHT22;12762;51.730;5.356;2024-01-30T11:11:52;12.80;84.20
24618;DHT22;12762;51.730;5.356;2024-01-30T11:14:24;12.90;84.30
24618;DHT22;12762;51.730;5.356;2024-01-30T11:16:52;13.00;84.40
24618;DHT22;12762;51.730;5.356;2024-01-30T11:19:24;13.10;84.40
24618;DHT22;12762;51.730;5.356;2024-01-30T11:21:57;13.20;84.10
24618;DHT22;12762;51.730;5.356;2024-01-30T11:24:24;13.30;83.80
24618;DHT22;12762;51.730;5.356;2024-01-30T11:27:03;13.30;83.50
24618;DHT22;12762;51.730;5.356;2024-01-30T11:29:35;13.40;83.20
24618;DHT22;12762;51.730;5.356;2024-01-30T11:32:02;13.40;83.00
24618;DHT22;12762;51.730;5.356;2024-01-30T11:34:29;13.40;82.80
24618;DHT22;12762;51.730;5.356;2024-01-30T11:36:57;13.50;82.50
24618;DHT22;12762;51.730;5.356;2024-01-30T11:39:27;13.40;82.20
24618;DHT22;12762;51.730;5.356;2024-01-30T11:41:56;13.40;82.10
24618;DHT22;12762;51.730;5.356;2024-01-30T11:44:23;13.30;81.50
24618;DHT22;12762;51.730;5.356;2024-01-30T11:46:51;13.30;81.60
24618;DHT22;12762;51.730;5.356;2024-01-30T11:49:18;13.20;81.40
24618;DHT22;12762;51.730;5.356;2024-01-30T11:51:46;13.20;81.50
24618;DHT22;12762;51.730;5.356;2024-01-30T11:54:17;13.20;81.60
24618;DHT22;12762;51.730;5.356;2024-01-30T11:56:44;13.20;81.30
24618;DHT22;12762;51.730;5.356;2024-01-30T11:59:11;13.20;81.00
24618;DHT22;12762;51.730;5.356;2024-01-30T12:01:38;13.20;80.00
24618;DHT22;12762;51.730;5.356;2024-01-30T12:04:05;13.20;79.80
24618;DHT22;12762;51.730;5.356;2024-01-30T12:06:37;13.20;79.50
24618;DHT22;12762;51.730;5.356;2024-01-30T12:09:05;13.10;79.30
24618;DHT22;12762;51.730;5.356;2024-01-30T12:11:32;13.10;79.40
24618;DHT22;12762;51.730;5.356;2024-01-30T12:13:59;13.10;79.00
24618;DHT22;12762;51.730;5.356;2024-01-30T12:16:26;13.10;78.80
24618;DHT22;12762;51.730;5.356;2024-01-30T12:19:00;13.00;78.40
24618;DHT22;12762;51.730;5.356;2024-01-30T12:21:31;13.10;78.60
24618;DHT22;12762;51.730;5.356;2024-01-30T12:23:59;13.00;78.80
24618;DHT22;12762;51.730;5.356;2024-01-30T12:26:27;13.10;78.70
24618;DHT22;12762;51.730;5.356;2024-01-30T12:28:55;13.10;78.30
24618;DHT22;12762;51.730;5.356;2024-01-30T12:31:32;13.10;78.60
24618;DHT22;12762;51.730;5.356;2024-01-30T12:34:02;13.10;78.60
24618;DHT22;12762;51.730;5.356;2024-01-30T12:36:29;13.00;78.50
24618;DHT22;12762;51.730;5.356;2024-01-30T12:38:58;13.00;78.50
24618;DHT22;12762;51.730;5.356;2024-01-30T12:41:25;12.90;78.50
24618;DHT22;12762;51.730;5.356;2024-01-30T12:43:57;12.90;78.60
24618;DHT22;12762;51.730;5.356;2024-01-30T12:46:29;12.90;78.70
24618;DHT22;12762;51.730;5.356;2024-01-30T12:48:56;12.90;78.50
24618;DHT22;12762;51.730;5.356;2024-01-30T12:51:24;12.80;78.30
24618;DHT22;12762;51.730;5.356;2024-01-30T12:53:51;12.80;77.80
24618;DHT22;12762;51.730;5.356;2024-01-30T12:56:18;12.70;77.60
24618;DHT22;12762;51.730;5.356;2024-01-30T12:58:45;12.60;77.50
24618;DHT22;12762;51.730;5.356;2024-01-30T13:01:20;12.60;77.50
24618;DHT22;12762;51.730;5.356;2024-01-30T13:03:47;12.50;77.20
24618;DHT22;12762;51.730;5.356;2024-01-30T13:06:14;12.50;76.80
24618;DHT22;12762;51.730;5.356;2024-01-30T13:08:44;12.50;77.00
24618;DHT22;12762;51.730;5.356;2024-01-30T13:11:11;12.40;76.90
24618;DHT22;12762;51.730;5.356;2024-01-30T13:13:47;12.30;76.70
24618;DHT22;12762;51.730;5.356;2024-01-30T13:16:14;12.20;76.60
24618;DHT22;12762;51.730;5.356;2024-01-30T13:18:41;12.20;76.70
24618;DHT22;12762;51.730;5.356;2024-01-30T13:21:08;12.10;76.80
24618;DHT22;12762;51.730;5.356;2024-01-30T13:23:35;12.00;76.50
24618;DHT22;12762;51.730;5.356;2024-01-30T13:26:02;12.00;76.80
24618;DHT22;12762;51.730;5.356;2024-01-30T13:28:29;11.90;76.60
24618;DHT22;12762;51.730;5.356;2024-01-30T13:30:57;11.90;76.70
24618;DHT22;12762;51.730;5.356;2024-01-30T13:33:25;11.80;76.90
24618;DHT22;12762;51.730;5.356;2024-01-30T13:35:55;11.80;77.00
24618;DHT22;12762;51.730;5.356;2024-01-30T13:38:28;11.70;77.10
24618;DHT22;12762;51.730;5.356;2024-01-30T13:40:57;11.60;77.30
24618;DHT22;12762;51.730;5.356;2024-01-30T13:43:26;11.50;77.50
24618;DHT22;12762;51.730;5.356;2024-01-30T13:45:52;11.40;77.80
24618;DHT22;12762;51.730;5.356;2024-01-30T13:48:20;11.30;77.90
24618;DHT22;12762;51.730;5.356;2024-01-30T13:50:47;11.30;78.20
24618;DHT22;12762;51.730;5.356;2024-01-30T13:53:14;11.20;79.10
24618;DHT22;12762;51.730;5.356;2024-01-30T13:55:41;11.20;78.50
24618;DHT22;12762;51.730;5.356;2024-01-30T13:58:08;11.10;79.50
24618;DHT22;12762;51.730;5.356;2024-01-30T14:00:35;11.00;78.80
24618;DHT22;12762;51.730;5.356;2024-01-30T14:03:02;11.00;78.90
24618;DHT22;12762;51.730;5.356;2024-01-30T14:05:32;10.90;79.10
24618;DHT22;12762;51.730;5.356;2024-01-30T14:08:02;10.90;79.40
24618;DHT22;12762;51.730;5.356;2024-01-30T14:10:29;10.80;79.50
24618;DHT22;12762;51.730;5.356;2024-01-30T14:12:55;10.80;79.70
24618;DHT22;12762;51.730;5.356;2024-01-30T14:15:23;10.80;79.80
24618;DHT22;12762;51.730;5.356;2024-01-30T14:17:55;10.80;79.90
24618;DHT22;12762;51.730;5.356;2024-01-30T14:20:23;10.80;80.00
24618;DHT22;12762;51.730;5.356;2024-01-30T14:22:50;10.70;79.90
24618;DHT22;12762;51.730;5.356;2024-01-30T14:25:18;10.70;80.00
24618;DHT22;12762;51.730;5.356;2024-01-30T14:27:46;10.70;80.00
24618;DHT22;12762;51.730;5.356;2024-01-30T14:30:13;10.70;80.10
24618;DHT22;12762;51.730;5.356;2024-01-30T14:32:40;10.70;80.00
24618;DHT22;12762;51.730;5.356;2024-01-30T14:35:09;10.70;80.10
24618;DHT22;12762;51.730;5.356;2024-01-30T14:37:37;10.70;80.20
24618;DHT22;12762;51.730;5.356;2024-01-30T14:40:05;10.70;80.10
24618;DHT22;12762;51.730;5.356;2024-01-30T14:42:35;10.60;80.10
24618;DHT22;12762;51.730;5.356;2024-01-30T14:45:05;10.60;80.10
24618;DHT22;12762;51.730;5.356;2024-01-30T14:47:32;10.60;80.20
24618;DHT22;12762;51.730;5.356;2024-01-30T14:49:59;10.60;80.20
24618;DHT22;12762;51.730;5.356;2024-01-30T14:52:26;10.60;80.20
24618;DHT22;12762;51.730;5.356;2024-01-30T14:54:53;10.60;80.30
24618;DHT22;12762;51.730;5.356;2024-01-30T14:57:21;10.70;80.40
24618;DHT22;12762;51.730;5.356;2024-01-30T14:59:47;10.70;80.30
24618;DHT22;12762;51.730;5.356;2024-01-30T15:02:17;10.70;80.30
24618;DHT22;12762;51.730;5.356;2024-01-30T15:04:43;10.70;80.30
24618;DHT22;12762;51.730;5.356;2024-01-30T15:07:10;10.70;80.30
24618;DHT22;12762;51.730;5.356;2024-01-30T15:09:40;10.70;80.30
24618;DHT22;12762;51.730;5.356;2024-01-30T15:12:07;10.70;80.30
24618;DHT22;12762;51.730;5.356;2024-01-30T15:14:34;10.70;81.00
24618;DHT22;12762;51.730;5.356;2024-01-30T15:17:02;10.70;80.20
24618;DHT22;12762;51.730;5.356;2024-01-30T15:19:30;10.70;80.30
24618;DHT22;12762;51.730;5.356;2024-01-30T15:21:59;10.70;80.20
24618;DHT22;12762;51.730;5.356;2024-01-30T15:24:26;10.60;80.20
24618;DHT22;12762;51.730;5.356;2024-01-30T15:26:53;10.60;80.20
24618;DHT22;12762;51.730;5.356;2024-01-30T15:29:20;10.60;80.20
24618;DHT22;12762;51.730;5.356;2024-01-30T15:31:49;10.50;80.20
24618;DHT22;12762;51.730;5.356;2024-01-30T15:34:16;10.50;80.40
24618;DHT22;12762;51.730;5.356;2024-01-30T15:36:43;10.40;80.40
24618;DHT22;12762;51.730;5.356;2024-01-30T15:39:10;10.40;80.50
24618;DHT22;12762;51.730;5.356;2024-01-30T15:41:37;10.40;80.70
24618;DHT22;12762;51.730;5.356;2024-01-30T15:44:04;10.30;80.70